sensor_id;sensor_type;location;lat;lon;timestamp;P1;durP1;ratioP1;P2;durP2;ratioP2
32533;SDS011;18973;48.580;8.912;2022-10-10T00:01:36;1.33;;;1.23;;
32533;SDS011;18973;48.580;8.912;2022-10-10T00:04:02;1.88;;;1.13;;
32533;SDS011;18973;48.580;8.912;2022-10-10T00:06:31;1.98;;;1.50;;
32533;SDS011;18973;48.580;8.912;2022-10-10T00:08:57;2.90;;;1.48;;
32533;SDS011;18973;48.580;8.912;2022-10-10T00:11:22;2.33;;;1.35;;
32533;SDS011;18973;48.580;8.912;2022-10-10T00:13:49;1.92;;;1.17;;
32533;SDS011;18973;48.580;8.912;2022-10-10T00:16:16;1.33;;;1.23;;
32533;SDS011;18973;48.580;8.912;2022-10-10T00:18:42;2.72;;;2.17;;
32533;SDS011;18973;48.580;8.912;2022-10-10T00:21:08;1.55;;;1.30;;
32533;SDS011;18973;48.580;8.912;2022-10-10T00:23:37;0.90;;;0.90;;
32533;SDS011;18973;48.580;8.912;2022-10-10T00:26:03;2.00;;;1.30;;
32533;SDS011;18973;48.580;8.912;2022-10-10T00:28:30;2.20;;;1.45;;
32533;SDS011;18973;48.580;8.912;2022-10-10T00:30:56;1.60;;;1.00;;
32533;SDS011;18973;48.580;8.912;2022-10-10T00:33:21;1.25;;;0.80;;
32533;SDS011;18973;48.580;8.912;2022-10-10T00:35:47;1.10;;;1.10;;
32533;SDS011;18973;48.580;8.912;2022-10-10T00:38:13;2.22;;;1.38;;
32533;SDS011;18973;48.580;8.912;2022-10-10T00:40:50;1.40;;;1.30;;
32533;SDS011;18973;48.580;8.912;2022-10-10T00:43:20;1.67;;;1.58;;
32533;SDS011;18973;48.580;8.912;2022-10-10T00:45:48;1.35;;;1.17;;
32533;SDS011;18973;48.580;8.912;2022-10-10T00:48:15;1.45;;;1.35;;
32533;SDS011;18973;48.580;8.912;2022-10-10T00:50:54;1.40;;;1.30;;
32533;SDS011;18973;48.580;8.912;2022-10-10T00:53:31;1.65;;;1.17;;
32533;SDS011;18973;48.580;8.912;2022-10-10T00:56:05;2.88;;;2.22;;
32533;SDS011;18973;48.580;8.912;2022-10-10T00:58:33;1.10;;;0.88;;
32533;SDS011;18973;48.580;8.912;2022-10-10T01:01:01;3.22;;;1.05;;
32533;SDS011;18973;48.580;8.912;2022-10-10T01:03:30;1.67;;;1.55;;
32533;SDS011;18973;48.580;8.912;2022-10-10T01:05:56;3.38;;;1.50;;
32533;SDS011;18973;48.580;8.912;2022-10-10T01:08:22;2.08;;;1.40;;
32533;SDS011;18973;48.580;8.912;2022-10-10T01:14:02;1.67;;;1.55;;
32533;SDS011;18973;48.580;8.912;2022-10-10T01:16:35;1.77;;;1.55;;
32533;SDS011;18973;48.580;8.912;2022-10-10T01:19:30;1.65;;;1.55;;
32533;SDS011;18973;48.580;8.912;2022-10-10T01:27:33;0.98;;;0.98;;
32533;SDS011;18973;48.580;8.912;2022-10-10T01:30:07;3.40;;;1.55;;
32533;SDS011;18973;48.580;8.912;2022-10-10T01:40:43;1.73;;;1.10;;
32533;SDS011;18973;48.580;8.912;2022-10-10T01:43:19;1.63;;;1.52;;
32533;SDS011;18973;48.580;8.912;2022-10-10T01:45:49;1.63;;;1.42;;
32533;SDS011;18973;48.580;8.912;2022-10-10T01:48:17;4.70;;;2.08;;
32533;SDS011;18973;48.580;8.912;2022-10-10T01:50:58;3.45;;;1.90;;
32533;SDS011;18973;48.580;8.912;2022-10-10T01:53:30;1.40;;;1.30;;
32533;SDS011;18973;48.580;8.912;2022-10-10T01:56:07;1.10;;;1.00;;
32533;SDS011;18973;48.580;8.912;2022-10-10T01:59:09;1.33;;;1.23;;
32533;SDS011;18973;48.580;8.912;2022-10-10T02:01:54;1.58;;;1.48;;
32533;SDS011;18973;48.580;8.912;2022-10-10T02:04:30;1.40;;;1.30;;
32533;SDS011;18973;48.580;8.912;2022-10-10T02:07:31;2.00;;;1.33;;
32533;SDS011;18973;48.580;8.912;2022-10-10T02:09:55;2.40;;;1.65;;
32533;SDS011;18973;48.580;8.912;2022-10-10T02:12:23;2.28;;;1.70;;
32533;SDS011;18973;48.580;8.912;2022-10-10T02:14:52;1.67;;;1.40;;
32533;SDS011;18973;48.580;8.912;2022-10-10T02:17:22;1.95;;;1.23;;
32533;SDS011;18973;48.580;8.912;2022-10-10T02:19:51;2.13;;;1.88;;
32533;SDS011;18973;48.580;8.912;2022-10-10T02:22:21;1.95;;;1.83;;
32533;SDS011;18973;48.580;8.912;2022-10-10T02:24:49;1.55;;;1.42;;
32533;SDS011;18973;48.580;8.912;2022-10-10T02:27:20;2.33;;;1.88;;
32533;SDS011;18973;48.580;8.912;2022-10-10T02:29:50;2.33;;;1.67;;
32533;SDS011;18973;48.580;8.912;2022-10-10T02:32:31;1.83;;;1.70;;
32533;SDS011;18973;48.580;8.912;2022-10-10T02:35:18;1.73;;;1.33;;
32533;SDS011;18973;48.580;8.912;2022-10-10T02:37:48;4.95;;;1.35;;
32533;SDS011;18973;48.580;8.912;2022-10-10T02:40:17;2.58;;;1.50;;
32533;SDS011;18973;48.580;8.912;2022-10-10T02:42:46;1.40;;;1.30;;
32533;SDS011;18973;48.580;8.912;2022-10-10T02:45:14;2.03;;;1.83;;
32533;SDS011;18973;48.580;8.912;2022-10-10T02:47:41;2.30;;;1.42;;
32533;SDS011;18973;48.580;8.912;2022-10-10T02:50:09;1.38;;;1.08;;
32533;SDS011;18973;48.580;8.912;2022-10-10T02:52:34;3.63;;;1.42;;
32533;SDS011;18973;48.580;8.912;2022-10-10T02:55:00;2.05;;;1.85;;
32533;SDS011;18973;48.580;8.912;2022-10-10T02:57:26;2.92;;;2.22;;
32533;SDS011;18973;48.580;8.912;2022-10-10T02:59:52;2.75;;;2.17;;
32533;SDS011;18973;48.580;8.912;2022-10-10T03:02:17;1.73;;;1.25;;
32533;SDS011;18973;48.580;8.912;2022-10-10T03:04:43;1.60;;;1.30;;
32533;SDS011;18973;48.580;8.912;2022-10-10T03:07:09;1.58;;;1.20;;
32533;SDS011;18973;48.580;8.912;2022-10-10T03:09:35;1.67;;;1.52;;
32533;SDS011;18973;48.580;8.912;2022-10-10T03:12:01;3.50;;;1.75;;
32533;SDS011;18973;48.580;8.912;2022-10-10T03:14:26;1.73;;;1.38;;
32533;SDS011;18973;48.580;8.912;2022-10-10T03:16:52;1.42;;;0.80;;
32533;SDS011;18973;48.580;8.912;2022-10-10T03:19:18;1.30;;;1.20;;
32533;SDS011;18973;48.580;8.912;2022-10-10T03:21:43;1.60;;;1.50;;
32533;SDS011;18973;48.580;8.912;2022-10-10T03:24:09;2.05;;;1.45;;
32533;SDS011;18973;48.580;8.912;2022-10-10T03:26:35;1.98;;;1.60;;
32533;SDS011;18973;48.580;8.912;2022-10-10T03:29:01;2.15;;;1.92;;
32533;SDS011;18973;48.580;8.912;2022-10-10T03:31:27;3.15;;;1.55;;
32533;SDS011;18973;48.580;8.912;2022-10-10T03:33:53;1.52;;;1.35;;
32533;SDS011;18973;48.580;8.912;2022-10-10T03:36:19;1.52;;;1.42;;
32533;SDS011;18973;48.580;8.912;2022-10-10T03:38:45;1.58;;;1.42;;
32533;SDS011;18973;48.580;8.912;2022-10-10T03:41:10;3.08;;;2.05;;
32533;SDS011;18973;48.580;8.912;2022-10-10T03:43:37;1.70;;;1.60;;
32533;SDS011;18973;48.580;8.912;2022-10-10T03:46:02;2.72;;;1.67;;
32533;SDS011;18973;48.580;8.912;2022-10-10T03:48:28;3.03;;;1.65;;
32533;SDS011;18973;48.580;8.912;2022-10-10T03:50:54;2.03;;;1.23;;
32533;SDS011;18973;48.580;8.912;2022-10-10T03:53:19;2.55;;;1.60;;
32533;SDS011;18973;48.580;8.912;2022-10-10T03:55:45;5.50;;;1.75;;
32533;SDS011;18973;48.580;8.912;2022-10-10T03:58:11;0.90;;;0.90;;
32533;SDS011;18973;48.580;8.912;2022-10-10T04:00:36;1.35;;;1.20;;
32533;SDS011;18973;48.580;8.912;2022-10-10T04:03:02;3.47;;;2.58;;
32533;SDS011;18973;48.580;8.912;2022-10-10T04:05:36;1.52;;;1.15;;
32533;SDS011;18973;48.580;8.912;2022-10-10T04:08:03;2.63;;;1.50;;
32533;SDS011;18973;48.580;8.912;2022-10-10T04:10:29;2.15;;;1.60;;
32533;SDS011;18973;48.580;8.912;2022-10-10T04:12:55;1.65;;;1.55;;
32533;SDS011;18973;48.580;8.912;2022-10-10T04:15:22;2.92;;;1.60;;
32533;SDS011;18973;48.580;8.912;2022-10-10T04:17:49;2.22;;;1.65;;
32533;SDS011;18973;48.580;8.912;2022-10-10T04:20:15;1.63;;;1.33;;
32533;SDS011;18973;48.580;8.912;2022-10-10T04:22:42;1.73;;;1.60;;
32533;SDS011;18973;48.580;8.912;2022-10-10T04:25:08;1.10;;;1.00;;
32533;SDS011;18973;48.580;8.912;2022-10-10T04:27:35;2.45;;;1.65;;
32533;SDS011;18973;48.580;8.912;2022-10-10T04:30:01;2.08;;;1.60;;
32533;SDS011;18973;48.580;8.912;2022-10-10T04:32:27;5.53;;;2.42;;
32533;SDS011;18973;48.580;8.912;2022-10-10T04:34:52;2.55;;;2.08;;
32533;SDS011;18973;48.580;8.912;2022-10-10T04:37:18;1.90;;;1.70;;
32533;SDS011;18973;48.580;8.912;2022-10-10T04:39:43;2.17;;;1.98;;
32533;SDS011;18973;48.580;8.912;2022-10-10T04:42:09;2.67;;;2.20;;
32533;SDS011;18973;48.580;8.912;2022-10-10T04:44:36;2.90;;;2.00;;
32533;SDS011;18973;48.580;8.912;2022-10-10T04:47:02;4.10;;;2.05;;
32533;SDS011;18973;48.580;8.912;2022-10-10T04:49:28;3.20;;;1.95;;
32533;SDS011;18973;48.580;8.912;2022-10-10T04:51:53;2.20;;;2.00;;
32533;SDS011;18973;48.580;8.912;2022-10-10T04:54:19;5.68;;;1.52;;
32533;SDS011;18973;48.580;8.912;2022-10-10T04:56:45;2.15;;;1.90;;
32533;SDS011;18973;48.580;8.912;2022-10-10T04:59:10;1.30;;;1.20;;
32533;SDS011;18973;48.580;8.912;2022-10-10T05:01:36;1.58;;;1.48;;
32533;SDS011;18973;48.580;8.912;2022-10-10T05:04:02;1.98;;;1.70;;
32533;SDS011;18973;48.580;8.912;2022-10-10T05:06:28;3.58;;;1.80;;
32533;SDS011;18973;48.580;8.912;2022-10-10T05:08:54;1.30;;;1.17;;
32533;SDS011;18973;48.580;8.912;2022-10-10T05:11:19;2.20;;;2.00;;
32533;SDS011;18973;48.580;8.912;2022-10-10T05:13:45;1.10;;;1.00;;
32533;SDS011;18973;48.580;8.912;2022-10-10T05:16:13;1.52;;;1.35;;
32533;SDS011;18973;48.580;8.912;2022-10-10T05:18:42;5.47;;;1.60;;
32533;SDS011;18973;48.580;8.912;2022-10-10T05:21:08;1.70;;;1.40;;
32533;SDS011;18973;48.580;8.912;2022-10-10T05:23:35;2.28;;;1.33;;
32533;SDS011;18973;48.580;8.912;2022-10-10T05:26:02;4.35;;;2.10;;
32533;SDS011;18973;48.580;8.912;2022-10-10T05:28:28;2.38;;;1.67;;
32533;SDS011;18973;48.580;8.912;2022-10-10T05:30:55;2.80;;;1.80;;
32533;SDS011;18973;48.580;8.912;2022-10-10T05:33:20;1.77;;;1.38;;
32533;SDS011;18973;48.580;8.912;2022-10-10T05:35:46;1.13;;;1.02;;
32533;SDS011;18973;48.580;8.912;2022-10-10T05:38:12;2.90;;;1.70;;
32533;SDS011;18973;48.580;8.912;2022-10-10T05:40:38;1.83;;;1.73;;
32533;SDS011;18973;48.580;8.912;2022-10-10T05:43:04;1.80;;;1.65;;
32533;SDS011;18973;48.580;8.912;2022-10-10T05:45:30;1.80;;;1.55;;
32533;SDS011;18973;48.580;8.912;2022-10-10T05:47:56;1.77;;;1.67;;
32533;SDS011;18973;48.580;8.912;2022-10-10T05:50:45;2.03;;;1.45;;
32533;SDS011;18973;48.580;8.912;2022-10-10T05:53:10;1.73;;;1.48;;
32533;SDS011;18973;48.580;8.912;2022-10-10T05:55:36;1.73;;;1.50;;
32533;SDS011;18973;48.580;8.912;2022-10-10T05:58:02;2.13;;;1.58;;
32533;SDS011;18973;48.580;8.912;2022-10-10T06:00:29;4.05;;;2.20;;
32533;SDS011;18973;48.580;8.912;2022-10-10T06:02:54;2.53;;;2.00;;
32533;SDS011;18973;48.580;8.912;2022-10-10T06:05:22;3.83;;;2.33;;
32533;SDS011;18973;48.580;8.912;2022-10-10T06:07:48;26.33;;;11.77;;
32533;SDS011;18973;48.580;8.912;2022-10-10T06:10:14;15.52;;;7.88;;
32533;SDS011;18973;48.580;8.912;2022-10-10T06:12:40;8.63;;;4.00;;
32533;SDS011;18973;48.580;8.912;2022-10-10T06:15:06;4.85;;;3.15;;
32533;SDS011;18973;48.580;8.912;2022-10-10T06:17:32;2.22;;;1.80;;
32533;SDS011;18973;48.580;8.912;2022-10-10T06:19:57;1.10;;;1.00;;
32533;SDS011;18973;48.580;8.912;2022-10-10T06:22:23;1.73;;;1.42;;
32533;SDS011;18973;48.580;8.912;2022-10-10T06:24:49;1.92;;;1.35;;
32533;SDS011;18973;48.580;8.912;2022-10-10T06:27:14;1.67;;;1.40;;
32533;SDS011;18973;48.580;8.912;2022-10-10T06:29:40;2.47;;;1.40;;
32533;SDS011;18973;48.580;8.912;2022-10-10T06:32:06;2.22;;;1.45;;
32533;SDS011;18973;48.580;8.912;2022-10-10T06:34:31;2.08;;;1.40;;
32533;SDS011;18973;48.580;8.912;2022-10-10T06:36:57;2.33;;;1.45;;
32533;SDS011;18973;48.580;8.912;2022-10-10T06:39:23;2.15;;;1.50;;
32533;SDS011;18973;48.580;8.912;2022-10-10T06:41:49;3.50;;;1.95;;
32533;SDS011;18973;48.580;8.912;2022-10-10T06:44:17;2.00;;;1.05;;
32533;SDS011;18973;48.580;8.912;2022-10-10T06:46:43;1.73;;;1.30;;
32533;SDS011;18973;48.580;8.912;2022-10-10T06:49:09;1.60;;;1.50;;
32533;SDS011;18973;48.580;8.912;2022-10-10T06:51:35;1.52;;;1.05;;
32533;SDS011;18973;48.580;8.912;2022-10-10T06:54:02;2.83;;;1.83;;
32533;SDS011;18973;48.580;8.912;2022-10-10T06:56:28;1.88;;;1.48;;
32533;SDS011;18973;48.580;8.912;2022-10-10T06:58:54;1.27;;;0.98;;
32533;SDS011;18973;48.580;8.912;2022-10-10T07:01:23;2.28;;;1.23;;
32533;SDS011;18973;48.580;8.912;2022-10-10T07:03:49;0.93;;;0.93;;
32533;SDS011;18973;48.580;8.912;2022-10-10T07:06:15;1.77;;;1.30;;
32533;SDS011;18973;48.580;8.912;2022-10-10T07:08:41;1.75;;;1.58;;
32533;SDS011;18973;48.580;8.912;2022-10-10T07:11:08;1.48;;;1.38;;
32533;SDS011;18973;48.580;8.912;2022-10-10T07:13:34;8.55;;;4.88;;
32533;SDS011;18973;48.580;8.912;2022-10-10T07:16:00;4.53;;;2.33;;
32533;SDS011;18973;48.580;8.912;2022-10-10T07:18:26;2.22;;;1.65;;
32533;SDS011;18973;48.580;8.912;2022-10-10T07:20:56;1.80;;;1.38;;
32533;SDS011;18973;48.580;8.912;2022-10-10T07:23:23;1.75;;;1.52;;
32533;SDS011;18973;48.580;8.912;2022-10-10T07:25:50;1.80;;;1.08;;
32533;SDS011;18973;48.580;8.912;2022-10-10T07:28:17;2.10;;;1.40;;
32533;SDS011;18973;48.580;8.912;2022-10-10T07:30:45;4.85;;;3.45;;
32533;SDS011;18973;48.580;8.912;2022-10-10T07:33:11;1.85;;;1.60;;
32533;SDS011;18973;48.580;8.912;2022-10-10T07:35:37;1.58;;;1.10;;
32533;SDS011;18973;48.580;8.912;2022-10-10T07:38:03;1.50;;;1.30;;
32533;SDS011;18973;48.580;8.912;2022-10-10T07:40:29;0.80;;;0.80;;
32533;SDS011;18973;48.580;8.912;2022-10-10T07:42:55;1.67;;;1.52;;
32533;SDS011;18973;48.580;8.912;2022-10-10T07:45:20;1.80;;;1.30;;
32533;SDS011;18973;48.580;8.912;2022-10-10T07:47:46;2.10;;;1.63;;
32533;SDS011;18973;48.580;8.912;2022-10-10T07:50:12;4.47;;;1.38;;
32533;SDS011;18973;48.580;8.912;2022-10-10T07:52:38;1.83;;;1.13;;
32533;SDS011;18973;48.580;8.912;2022-10-10T07:55:04;1.60;;;1.17;;
32533;SDS011;18973;48.580;8.912;2022-10-10T07:57:31;1.23;;;1.13;;
32533;SDS011;18973;48.580;8.912;2022-10-10T08:00:03;2.08;;;1.35;;
32533;SDS011;18973;48.580;8.912;2022-10-10T08:02:30;3.03;;;1.50;;
32533;SDS011;18973;48.580;8.912;2022-10-10T08:04:56;1.40;;;1.17;;
32533;SDS011;18973;48.580;8.912;2022-10-10T08:07:21;2.78;;;1.25;;
32533;SDS011;18973;48.580;8.912;2022-10-10T08:09:47;2.35;;;0.93;;
32533;SDS011;18973;48.580;8.912;2022-10-10T08:12:14;1.83;;;1.25;;
32533;SDS011;18973;48.580;8.912;2022-10-10T08:14:39;1.67;;;1.40;;
32533;SDS011;18973;48.580;8.912;2022-10-10T08:17:05;1.73;;;1.17;;
32533;SDS011;18973;48.580;8.912;2022-10-10T08:19:31;1.90;;;1.60;;
32533;SDS011;18973;48.580;8.912;2022-10-10T08:21:58;1.48;;;1.38;;
32533;SDS011;18973;48.580;8.912;2022-10-10T08:24:24;1.65;;;1.30;;
32533;SDS011;18973;48.580;8.912;2022-10-10T08:26:50;2.95;;;1.17;;
32533;SDS011;18973;48.580;8.912;2022-10-10T08:29:16;1.30;;;1.20;;
32533;SDS011;18973;48.580;8.912;2022-10-10T08:31:42;1.40;;;1.30;;
32533;SDS011;18973;48.580;8.912;2022-10-10T08:34:07;2.20;;;1.73;;
32533;SDS011;18973;48.580;8.912;2022-10-10T08:36:33;2.42;;;1.38;;
32533;SDS011;18973;48.580;8.912;2022-10-10T08:39:00;1.85;;;1.30;;
32533;SDS011;18973;48.580;8.912;2022-10-10T08:44:04;1.98;;;1.38;;
32533;SDS011;18973;48.580;8.912;2022-10-10T08:49:21;1.30;;;1.02;;
32533;SDS011;18973;48.580;8.912;2022-10-10T08:51:51;1.70;;;1.60;;
32533;SDS011;18973;48.580;8.912;2022-10-10T08:54:25;1.75;;;1.65;;
32533;SDS011;18973;48.580;8.912;2022-10-10T08:56:57;2.38;;;1.27;;
32533;SDS011;18973;48.580;8.912;2022-10-10T08:59:30;0.65;;;0.63;;
32533;SDS011;18973;48.580;8.912;2022-10-10T09:04:57;1.80;;;1.58;;
32533;SDS011;18973;48.580;8.912;2022-10-10T09:10:02;3.10;;;2.10;;
32533;SDS011;18973;48.580;8.912;2022-10-10T09:12:56;2.15;;;1.30;;
32533;SDS011;18973;48.580;8.912;2022-10-10T09:15:58;1.10;;;1.00;;
32533;SDS011;18973;48.580;8.912;2022-10-10T09:21:11;1.73;;;1.40;;
32533;SDS011;18973;48.580;8.912;2022-10-10T09:28:59;2.15;;;1.35;;
32533;SDS011;18973;48.580;8.912;2022-10-10T09:31:46;1.45;;;1.35;;
32533;SDS011;18973;48.580;8.912;2022-10-10T09:36:55;2.20;;;1.75;;
32533;SDS011;18973;48.580;8.912;2022-10-10T09:42:13;1.75;;;1.55;;
32533;SDS011;18973;48.580;8.912;2022-10-10T09:44:41;3.33;;;1.35;;
32533;SDS011;18973;48.580;8.912;2022-10-10T09:47:16;2.33;;;1.42;;
32533;SDS011;18973;48.580;8.912;2022-10-10T09:49:42;3.45;;;2.10;;
32533;SDS011;18973;48.580;8.912;2022-10-10T09:52:25;2.38;;;1.00;;
32533;SDS011;18973;48.580;8.912;2022-10-10T09:54:54;1.98;;;0.85;;
32533;SDS011;18973;48.580;8.912;2022-10-10T09:57:30;3.85;;;1.88;;
32533;SDS011;18973;48.580;8.912;2022-10-10T10:00:20;1.33;;;0.90;;
32533;SDS011;18973;48.580;8.912;2022-10-10T10:02:49;6.80;;;1.52;;
32533;SDS011;18973;48.580;8.912;2022-10-10T10:05:33;1.60;;;1.30;;
32533;SDS011;18973;48.580;8.912;2022-10-10T10:07:59;1.45;;;1.15;;
32533;SDS011;18973;48.580;8.912;2022-10-10T10:10:25;1.63;;;1.20;;
32533;SDS011;18973;48.580;8.912;2022-10-10T10:12:52;3.63;;;2.28;;
32533;SDS011;18973;48.580;8.912;2022-10-10T10:15:22;3.28;;;1.40;;
32533;SDS011;18973;48.580;8.912;2022-10-10T10:20:54;2.80;;;1.77;;
32533;SDS011;18973;48.580;8.912;2022-10-10T10:23:42;2.10;;;1.77;;
32533;SDS011;18973;48.580;8.912;2022-10-10T10:28:44;7.13;;;2.35;;
32533;SDS011;18973;48.580;8.912;2022-10-10T10:31:15;1.83;;;1.30;;
32533;SDS011;18973;48.580;8.912;2022-10-10T10:53:20;2.22;;;1.65;;
32533;SDS011;18973;48.580;8.912;2022-10-10T11:01:17;1.17;;;0.90;;
32533;SDS011;18973;48.580;8.912;2022-10-10T11:06:56;1.52;;;0.85;;
32533;SDS011;18973;48.580;8.912;2022-10-10T11:09:44;1.35;;;0.95;;
32533;SDS011;18973;48.580;8.912;2022-10-10T11:15:15;1.00;;;0.90;;
32533;SDS011;18973;48.580;8.912;2022-10-10T11:18:01;0.75;;;0.68;;
32533;SDS011;18973;48.580;8.912;2022-10-10T11:20:41;1.33;;;0.90;;
32533;SDS011;18973;48.580;8.912;2022-10-10T11:23:18;1.08;;;0.80;;
32533;SDS011;18973;48.580;8.912;2022-10-10T11:25:50;1.45;;;1.10;;
32533;SDS011;18973;48.580;8.912;2022-10-10T11:28:28;1.05;;;0.73;;
32533;SDS011;18973;48.580;8.912;2022-10-10T11:31:06;1.20;;;0.98;;
32533;SDS011;18973;48.580;8.912;2022-10-10T11:33:43;1.77;;;0.88;;
32533;SDS011;18973;48.580;8.912;2022-10-10T11:41:17;0.82;;;0.40;;
32533;SDS011;18973;48.580;8.912;2022-10-10T11:43:50;0.85;;;0.60;;
32533;SDS011;18973;48.580;8.912;2022-10-10T11:57:47;1.05;;;0.73;;
32533;SDS011;18973;48.580;8.912;2022-10-10T12:00:20;1.27;;;0.57;;
32533;SDS011;18973;48.580;8.912;2022-10-10T12:02:46;2.17;;;0.80;;
32533;SDS011;18973;48.580;8.912;2022-10-10T12:05:19;1.70;;;0.63;;
32533;SDS011;18973;48.580;8.912;2022-10-10T12:10:30;1.15;;;0.82;;
32533;SDS011;18973;48.580;8.912;2022-10-10T12:13:18;0.40;;;0.40;;
32533;SDS011;18973;48.580;8.912;2022-10-10T12:16:04;0.95;;;0.63;;
32533;SDS011;18973;48.580;8.912;2022-10-10T12:21:16;0.35;;;0.30;;
32533;SDS011;18973;48.580;8.912;2022-10-10T12:37:23;3.40;;;0.38;;
32533;SDS011;18973;48.580;8.912;2022-10-10T12:42:33;0.52;;;0.20;;
32533;SDS011;18973;48.580;8.912;2022-10-10T12:45:02;0.70;;;0.47;;
32533;SDS011;18973;48.580;8.912;2022-10-10T12:47:48;3.15;;;1.10;;
32533;SDS011;18973;48.580;8.912;2022-10-10T12:50:34;1.20;;;0.77;;
32533;SDS011;18973;48.580;8.912;2022-10-10T12:53:15;1.67;;;0.80;;
32533;SDS011;18973;48.580;8.912;2022-10-10T12:55:44;2.47;;;0.73;;
32533;SDS011;18973;48.580;8.912;2022-10-10T13:00:44;3.55;;;0.65;;
32533;SDS011;18973;48.580;8.912;2022-10-10T13:03:24;2.63;;;1.45;;
32533;SDS011;18973;48.580;8.912;2022-10-10T13:05:57;1.58;;;1.13;;
32533;SDS011;18973;48.580;8.912;2022-10-10T13:08:28;2.42;;;0.85;;
32533;SDS011;18973;48.580;8.912;2022-10-10T13:11:08;0.32;;;0.30;;
32533;SDS011;18973;48.580;8.912;2022-10-10T13:13:36;0.38;;;0.28;;
32533;SDS011;18973;48.580;8.912;2022-10-10T13:16:08;6.88;;;0.55;;
32533;SDS011;18973;48.580;8.912;2022-10-10T13:18:39;1.90;;;0.68;;
32533;SDS011;18973;48.580;8.912;2022-10-10T13:21:25;0.85;;;0.40;;
32533;SDS011;18973;48.580;8.912;2022-10-10T13:23:57;3.13;;;0.38;;
32533;SDS011;18973;48.580;8.912;2022-10-10T13:28:59;0.55;;;0.55;;
32533;SDS011;18973;48.580;8.912;2022-10-10T13:31:29;0.98;;;0.40;;
32533;SDS011;18973;48.580;8.912;2022-10-10T13:34:00;4.15;;;1.63;;
32533;SDS011;18973;48.580;8.912;2022-10-10T13:36:29;1.17;;;1.08;;
32533;SDS011;18973;48.580;8.912;2022-10-10T13:38:55;0.98;;;0.45;;
32533;SDS011;18973;48.580;8.912;2022-10-10T13:41:22;0.32;;;0.32;;
32533;SDS011;18973;48.580;8.912;2022-10-10T13:43:50;0.63;;;0.63;;
32533;SDS011;18973;48.580;8.912;2022-10-10T13:48:47;0.95;;;0.30;;
32533;SDS011;18973;48.580;8.912;2022-10-10T13:51:14;1.75;;;0.30;;
32533;SDS011;18973;48.580;8.912;2022-10-10T13:58:56;0.28;;;0.25;;
32533;SDS011;18973;48.580;8.912;2022-10-10T14:03:52;0.90;;;0.80;;
32533;SDS011;18973;48.580;8.912;2022-10-10T14:06:22;1.65;;;0.80;;
32533;SDS011;18973;48.580;8.912;2022-10-10T14:08:51;1.65;;;0.30;;
32533;SDS011;18973;48.580;8.912;2022-10-10T14:11:19;2.35;;;0.57;;
32533;SDS011;18973;48.580;8.912;2022-10-10T14:13:51;0.73;;;0.47;;
32533;SDS011;18973;48.580;8.912;2022-10-10T14:16:24;3.13;;;0.47;;
32533;SDS011;18973;48.580;8.912;2022-10-10T14:18:51;2.00;;;0.90;;
32533;SDS011;18973;48.580;8.912;2022-10-10T14:21:17;0.73;;;0.60;;
32533;SDS011;18973;48.580;8.912;2022-10-10T14:23:43;0.40;;;0.20;;
32533;SDS011;18973;48.580;8.912;2022-10-10T14:26:13;2.67;;;0.73;;
32533;SDS011;18973;48.580;8.912;2022-10-10T14:28:42;0.25;;;0.22;;
32533;SDS011;18973;48.580;8.912;2022-10-10T14:31:08;0.43;;;0.43;;
32533;SDS011;18973;48.580;8.912;2022-10-10T14:33:34;0.85;;;0.30;;
32533;SDS011;18973;48.580;8.912;2022-10-10T14:36:00;2.03;;;0.75;;
32533;SDS011;18973;48.580;8.912;2022-10-10T14:38:26;1.48;;;0.57;;
32533;SDS011;18973;48.580;8.912;2022-10-10T14:40:52;0.80;;;0.30;;
32533;SDS011;18973;48.580;8.912;2022-10-10T14:43:18;2.13;;;1.08;;
32533;SDS011;18973;48.580;8.912;2022-10-10T14:45:45;2.58;;;1.10;;
32533;SDS011;18973;48.580;8.912;2022-10-10T14:48:13;0.20;;;0.20;;
32533;SDS011;18973;48.580;8.912;2022-10-10T14:50:43;1.65;;;1.15;;
32533;SDS011;18973;48.580;8.912;2022-10-10T14:53:11;1.20;;;0.40;;
32533;SDS011;18973;48.580;8.912;2022-10-10T14:55:38;1.90;;;0.52;;
32533;SDS011;18973;48.580;8.912;2022-10-10T14:58:17;0.95;;;0.63;;
32533;SDS011;18973;48.580;8.912;2022-10-10T15:00:46;1.75;;;0.77;;
32533;SDS011;18973;48.580;8.912;2022-10-10T15:03:12;1.88;;;0.52;;
32533;SDS011;18973;48.580;8.912;2022-10-10T15:05:39;0.73;;;0.40;;
32533;SDS011;18973;48.580;8.912;2022-10-10T15:08:05;2.05;;;0.68;;
32533;SDS011;18973;48.580;8.912;2022-10-10T15:10:30;0.82;;;0.63;;
32533;SDS011;18973;48.580;8.912;2022-10-10T15:12:56;1.35;;;0.70;;
32533;SDS011;18973;48.580;8.912;2022-10-10T15:15:22;0.57;;;0.40;;
32533;SDS011;18973;48.580;8.912;2022-10-10T15:17:48;2.78;;;0.47;;
32533;SDS011;18973;48.580;8.912;2022-10-10T15:20:14;5.78;;;1.23;;
32533;SDS011;18973;48.580;8.912;2022-10-10T15:22:40;3.47;;;1.08;;
32533;SDS011;18973;48.580;8.912;2022-10-10T15:25:07;3.80;;;1.25;;
32533;SDS011;18973;48.580;8.912;2022-10-10T15:27:34;3.90;;;1.65;;
32533;SDS011;18973;48.580;8.912;2022-10-10T15:30:01;2.60;;;1.33;;
32533;SDS011;18973;48.580;8.912;2022-10-10T15:32:27;0.88;;;0.45;;
32533;SDS011;18973;48.580;8.912;2022-10-10T15:34:53;2.55;;;0.93;;
32533;SDS011;18973;48.580;8.912;2022-10-10T15:37:19;0.57;;;0.32;;
32533;SDS011;18973;48.580;8.912;2022-10-10T15:39:48;4.70;;;0.52;;
32533;SDS011;18973;48.580;8.912;2022-10-10T15:42:14;0.30;;;0.30;;
32533;SDS011;18973;48.580;8.912;2022-10-10T15:44:44;0.43;;;0.10;;
32533;SDS011;18973;48.580;8.912;2022-10-10T15:47:11;0.63;;;0.22;;
32533;SDS011;18973;48.580;8.912;2022-10-10T15:49:38;0.93;;;0.55;;
32533;SDS011;18973;48.580;8.912;2022-10-10T15:52:04;3.28;;;0.60;;
32533;SDS011;18973;48.580;8.912;2022-10-10T15:54:30;1.65;;;1.27;;
32533;SDS011;18973;48.580;8.912;2022-10-10T15:56:56;0.30;;;0.30;;
32533;SDS011;18973;48.580;8.912;2022-10-10T15:59:22;1.00;;;0.80;;
32533;SDS011;18973;48.580;8.912;2022-10-10T16:01:47;1.40;;;0.95;;
32533;SDS011;18973;48.580;8.912;2022-10-10T16:04:13;1.23;;;1.08;;
32533;SDS011;18973;48.580;8.912;2022-10-10T16:06:39;3.53;;;0.95;;
32533;SDS011;18973;48.580;8.912;2022-10-10T16:09:04;2.03;;;0.55;;
32533;SDS011;18973;48.580;8.912;2022-10-10T16:11:30;1.08;;;0.35;;
32533;SDS011;18973;48.580;8.912;2022-10-10T16:13:56;2.40;;;0.77;;
32533;SDS011;18973;48.580;8.912;2022-10-10T16:16:22;0.60;;;0.50;;
32533;SDS011;18973;48.580;8.912;2022-10-10T16:18:49;0.77;;;0.73;;
32533;SDS011;18973;48.580;8.912;2022-10-10T16:21:17;0.60;;;0.40;;
32533;SDS011;18973;48.580;8.912;2022-10-10T16:23:45;0.40;;;0.40;;
32533;SDS011;18973;48.580;8.912;2022-10-10T16:26:16;0.65;;;0.47;;
32533;SDS011;18973;48.580;8.912;2022-10-10T16:28:42;0.80;;;0.52;;
32533;SDS011;18973;48.580;8.912;2022-10-10T16:31:10;1.98;;;0.43;;
32533;SDS011;18973;48.580;8.912;2022-10-10T16:33:37;3.28;;;0.50;;
32533;SDS011;18973;48.580;8.912;2022-10-10T16:36:11;1.77;;;0.85;;
32533;SDS011;18973;48.580;8.912;2022-10-10T16:38:41;1.05;;;0.50;;
32533;SDS011;18973;48.580;8.912;2022-10-10T16:41:11;2.85;;;0.73;;
32533;SDS011;18973;48.580;8.912;2022-10-10T16:43:39;2.33;;;0.80;;
32533;SDS011;18973;48.580;8.912;2022-10-10T16:46:12;0.90;;;0.75;;
32533;SDS011;18973;48.580;8.912;2022-10-10T16:48:50;1.05;;;1.02;;
32533;SDS011;18973;48.580;8.912;2022-10-10T16:51:16;2.13;;;1.25;;
32533;SDS011;18973;48.580;8.912;2022-10-10T16:53:45;0.77;;;0.77;;
32533;SDS011;18973;48.580;8.912;2022-10-10T16:56:12;0.85;;;0.75;;
32533;SDS011;18973;48.580;8.912;2022-10-10T16:58:40;1.40;;;0.50;;
32533;SDS011;18973;48.580;8.912;2022-10-10T17:01:10;1.15;;;0.95;;
32533;SDS011;18973;48.580;8.912;2022-10-10T17:03:41;4.35;;;2.00;;
32533;SDS011;18973;48.580;8.912;2022-10-10T17:06:08;1.58;;;1.05;;
32533;SDS011;18973;48.580;8.912;2022-10-10T17:08:37;1.35;;;1.20;;
32533;SDS011;18973;48.580;8.912;2022-10-10T17:11:03;0.45;;;0.45;;